Time;durP1;ratioP1;P1;durP2;ratioP2;P2;SDS_P1;SDS_P2;PMS_P1;PMS_P2;Temp;Humidity;BMP_temperature;BMP_pressure;BME280_temperature;BME280_humidity;BME280_pressure;Samples;Min_cycle;Max_cycle;Signal;HPM_P1;HPM_P2
2021/08/15 11:26:30;;;;;;;16.40;10.38;;;34.50;23.80;;;;;;5030650;28;20229;-85
2021/08/15 11:28:57;;;;;;;15.90;9.82;;;34.40;24.10;;;;;;5034637;28;20543;-85
2021/08/15 11:31:23;;;;;;;15.57;9.35;;;34.20;24.70;;;;;;5040221;28;20293;-84
2021/08/15 11:34:29;;;;;;;14.75;9.43;;;34.00;25.30;;;;;;5298951;22;20254;-84
2021/08/15 11:36:57;;;;;;;20.25;11.02;;;33.60;26.60;;;;;;4988829;28;20215;-84
2021/08/15 11:39:32;;;;;;;14.10;9.10;;;33.60;26.90;;;;;;4980160;28;20290;-85
2021/08/15 11:42:00;;;;;;;14.98;9.52;;;33.20;26.60;;;;;;4987316;28;20233;-85
2021/08/15 11:44:27;;;;;;;16.10;9.98;;;32.60;27.70;;;;;;4997204;28;20211;-87
2021/08/15 11:47:14;;;;;;;18.40;10.02;;;32.20;27.90;;;;;;4983367;28;20230;-85
2021/08/15 11:49:41;;;;;;;19.27;9.85;;;32.20;29.00;;;;;;4966369;28;20200;-85
2021/08/15 11:52:25;;;;;;;17.33;9.65;;;32.30;28.20;;;;;;4978242;28;20192;-86
2021/08/15 11:54:55;;;;;;;13.63;9.15;;;32.30;29.10;;;;;;4977803;28;20679;-82
2021/08/15 11:57:23;;;;;;;14.80;8.85;;;32.30;28.30;;;;;;4978590;28;20188;-84
2021/08/15 12:00:17;;;;;;;18.17;9.90;;;32.00;27.30;;;;;;4983335;28;20316;-84
2021/08/15 12:03:03;;;;;;;17.95;12.38;;;31.90;27.60;;;;;;4978423;28;20224;-84
2021/08/15 12:05:30;;;;;;;20.27;9.80;;;31.90;28.90;;;;;;4981104;28;20232;-84
2021/08/15 12:08:45;;;;;;;19.77;10.80;;;31.40;28.50;;;;;;4979899;28;20189;-84
2021/08/15 12:17:53;;;;;;;13.65;9.20;;;31.30;37.20;;;;;;4977678;28;20564;-84
2021/08/15 12:20:21;;;;;;;13.95;8.93;;;31.50;32.60;;;;;;4988991;28;20204;-84
2021/08/15 12:23:13;;;;;;;14.05;8.18;;;31.60;30.30;;;;;;4978793;28;20270;-84
2021/08/15 12:25:40;;;;;;;17.80;9.30;;;31.80;29.80;;;;;;4988834;28;20235;-84
2021/08/15 12:30:52;;;;;;;13.85;8.27;;;31.70;30.00;;;;;;4972170;28;20227;-85
2021/08/15 15:20:42;;;;;;;18.08;6.38;;;27.60;33.90;;;;;;4977565;28;20232;-82
2021/08/15 15:23:10;;;;;;;20.83;7.57;;;27.10;31.70;;;;;;4980878;28;20228;-84
2021/08/15 15:40:17;;;;;;;19.30;6.50;;;22.40;90.50;;;;;;5371864;23;20226;-85
2021/08/15 15:42:44;;;;;;;17.98;7.28;;;21.60;92.50;;;;;;5037511;28;20320;-85
2021/08/15 15:45:11;;;;;;;38.28;23.00;;;21.30;94.60;;;;;;5038093;28;20242;-82
2021/08/15 15:47:39;;;;;;;21.77;8.30;;;21.10;96.50;;;;;;5032467;28;20205;-85
2021/08/15 15:50:07;;;;;;;35.47;28.17;;;21.10;97.50;;;;;;5015754;28;20227;-85
2021/08/15 15:52:34;;;;;;;18.15;8.27;;;21.30;97.80;;;;;;4999220;28;20248;-85
2021/08/15 15:55:01;;;;;;;33.03;22.80;;;21.50;98.10;;;;;;5003674;28;20326;-84
2021/08/15 15:57:29;;;;;;;26.85;18.42;;;21.60;98.50;;;;;;5019589;28;20187;-84
2021/08/15 15:59:56;;;;;;;31.10;23.55;;;21.80;98.50;;;;;;5025499;28;20294;-84
2021/08/15 16:02:23;;;;;;;16.15;7.45;;;22.00;98.50;;;;;;5019080;28;20319;-85
2021/08/15 16:04:52;;;;;;;19.23;8.02;;;22.20;97.90;;;;;;5025496;28;20187;-84
2021/08/15 16:07:19;;;;;;;15.50;7.63;;;22.00;99.40;;;;;;5035158;28;20237;-85
2021/08/15 16:09:45;;;;;;;48.97;38.13;;;21.80;98.90;;;;;;5044517;28;20234;-85
2021/08/15 16:13:07;;;;;;;92.43;82.80;;;21.80;98.70;;;;;;5042457;28;20262;-85
2021/08/15 16:15:35;;;;;;;16.40;6.93;;;21.90;98.30;;;;;;5045808;28;20198;-85
2021/08/15 16:18:03;;;;;;;46.20;41.17;;;21.90;96.70;;;;;;5037827;28;20187;-85
